Time;durP1;ratioP1;P1;durP2;ratioP2;P2;SDS_P1;SDS_P2;PMS_P1;PMS_P2;Temp;Humidity;BMP_temperature;BMP_pressure;BME280_temperature;BME280_humidity;BME280_pressure;Samples;Min_cycle;Max_cycle;Signal;HPM_P1;HPM_P2
2023/01/11 00:01:23;;;;;;;2.97;1.98;;;;;;;;;;5004968;28;20034;-73
2023/01/11 00:03:49;;;;;;;5.15;1.95;;;;;;;;;;5003083;28;20025;-73
2023/01/11 00:06:15;;;;;;;3.13;1.65;;;;;;;;;;5006791;28;20026;-72
2023/01/11 00:08:41;;;;;;;4.00;1.65;;;;;;;;;;4999214;28;20042;-73
2023/01/11 00:11:12;;;;;;;3.90;1.98;;;;;;;;;;5001227;28;20033;-71
2023/01/11 00:13:38;;;;;;;3.95;1.40;;;;;;;;;;5002461;28;20037;-74
2023/01/11 00:16:05;;;;;;;3.58;1.73;;;;;;;;;;5000169;28;20042;-74
2023/01/11 00:18:31;;;;;;;2.53;1.70;;;;;;;;;;4991886;28;20203;-73
2023/01/11 00:20:59;;;;;;;2.15;1.63;;;;;;;;;;4999668;28;20639;-73
2023/01/11 00:23:25;;;;;;;4.10;1.70;;;;;;;;;;5000184;28;20044;-73
2023/01/11 00:25:51;;;;;;;2.50;1.63;;;;;;;;;;4999413;28;20493;-72
2023/01/11 00:28:17;;;;;;;6.53;1.67;;;;;;;;;;5000201;28;20660;-72
2023/01/11 00:30:43;;;;;;;6.18;2.10;;;;;;;;;;5000855;28;20040;-73
2023/01/11 00:33:10;;;;;;;3.00;1.40;;;;;;;;;;5002617;28;20030;-72
2023/01/11 00:35:37;;;;;;;1.92;1.40;;;;;;;;;;4995688;28;20507;-73
2023/01/11 00:38:02;;;;;;;5.35;2.10;;;;;;;;;;5000451;28;20483;-72
2023/01/11 00:40:28;;;;;;;4.13;1.52;;;;;;;;;;5003121;28;20034;-73
2023/01/11 00:48:24;;;;;;;2.95;1.63;;;;;;;;;;4997007;28;20448;-72
2023/01/11 00:50:53;;;;;;;1.38;1.27;;;;;;;;;;5001296;28;20066;-72
2023/01/11 00:53:19;;;;;;;3.15;1.55;;;;;;;;;;5005426;28;20040;-73
2023/01/11 00:55:45;;;;;;;3.67;1.60;;;;;;;;;;5007977;28;20029;-73
2023/01/11 00:58:11;;;;;;;1.85;1.45;;;;;;;;;;5002857;28;20022;-74
2023/01/11 01:00:37;;;;;;;2.42;1.83;;;;;;;;;;5002415;28;20050;-73
2023/01/11 01:03:03;;;;;;;1.92;1.50;;;;;;;;;;5001747;28;20021;-73
2023/01/11 01:05:29;;;;;;;2.83;1.45;;;;;;;;;;5007821;28;20036;-74
2023/01/11 01:07:55;;;;;;;1.83;1.30;;;;;;;;;;5006666;28;20018;-73
2023/01/11 01:10:21;;;;;;;4.57;1.38;;;;;;;;;;5003363;28;20510;-73
2023/01/11 01:15:32;;;;;;;3.38;1.42;;;;;;;;;;4997128;28;20053;-72
2023/01/11 01:17:58;;;;;;;2.47;1.50;;;;;;;;;;5005854;28;20583;-71
2023/01/11 01:20:24;;;;;;;5.15;1.55;;;;;;;;;;5006440;28;20018;-73
2023/01/11 01:22:51;;;;;;;4.78;1.70;;;;;;;;;;4999971;28;20036;-72
2023/01/11 01:25:17;;;;;;;1.98;1.30;;;;;;;;;;5004465;28;20409;-73
2023/01/11 01:27:43;;;;;;;3.08;1.75;;;;;;;;;;5003855;28;20092;-72
2023/01/11 01:30:10;;;;;;;4.30;1.70;;;;;;;;;;5004907;28;20859;-72
2023/01/11 01:32:36;;;;;;;2.63;1.52;;;;;;;;;;5003076;28;20088;-72
2023/01/11 01:35:02;;;;;;;2.15;1.42;;;;;;;;;;5003925;28;20029;-72
2023/01/11 01:37:28;;;;;;;2.55;1.42;;;;;;;;;;5003863;28;20025;-73
2023/01/11 01:39:54;;;;;;;4.25;1.40;;;;;;;;;;5004015;28;20029;-72
2023/01/11 01:42:20;;;;;;;3.03;1.90;;;;;;;;;;5001369;28;20026;-72
2023/01/11 01:44:55;;;;;;;2.13;1.42;;;;;;;;;;5002659;28;20049;-72
2023/01/11 01:47:25;;;;;;;2.05;1.63;;;;;;;;;;5006341;28;20034;-72
2023/01/11 01:49:51;;;;;;;2.22;1.52;;;;;;;;;;5002955;28;20029;-72
2023/01/11 01:52:17;;;;;;;1.27;1.05;;;;;;;;;;5002727;28;20079;-72
2023/01/11 01:54:45;;;;;;;3.60;1.67;;;;;;;;;;5004349;28;21490;-71
2023/01/11 01:57:15;;;;;;;2.63;1.52;;;;;;;;;;5000754;28;20042;-71
2023/01/11 01:59:41;;;;;;;2.08;1.25;;;;;;;;;;5002649;28;20083;-73
2023/01/11 02:02:10;;;;;;;3.22;1.63;;;;;;;;;;5003049;28;20050;-72
2023/01/11 02:04:36;;;;;;;3.65;1.60;;;;;;;;;;5002702;28;20584;-72
2023/01/11 02:07:04;;;;;;;2.38;1.42;;;;;;;;;;5003029;28;20030;-73
2023/01/11 02:09:49;;;;;;;2.63;1.45;;;;;;;;;;5003131;28;20049;-72
2023/01/11 02:12:15;;;;;;;1.58;1.15;;;;;;;;;;5003882;28;20519;-72
2023/01/11 02:14:42;;;;;;;1.77;1.17;;;;;;;;;;5003027;28;20038;-72
2023/01/11 02:17:09;;;;;;;4.40;1.30;;;;;;;;;;5003844;28;20041;-73
2023/01/11 02:19:53;;;;;;;4.60;1.38;;;;;;;;;;5004117;28;20375;-73
2023/01/11 02:22:43;;;;;;;2.10;1.20;;;;;;;;;;5005190;28;20026;-73
2023/01/11 02:25:28;;;;;;;1.95;1.20;;;;;;;;;;5003529;28;20056;-73
2023/01/11 02:27:57;;;;;;;1.63;1.10;;;;;;;;;;5001130;28;20025;-73
2023/01/11 02:30:43;;;;;;;3.10;1.15;;;;;;;;;;5005335;28;20029;-73
2023/01/11 02:33:18;;;;;;;1.90;1.00;;;;;;;;;;5003809;28;20033;-73
2023/01/11 02:35:47;;;;;;;3.33;1.08;;;;;;;;;;5001507;28;20038;-73
2023/01/11 02:38:15;;;;;;;2.88;1.20;;;;;;;;;;5008154;28;20036;-73
2023/01/11 02:40:48;;;;;;;1.15;1.05;;;;;;;;;;5003425;28;20313;-74
2023/01/11 02:46:20;;;;;;;1.52;1.10;;;;;;;;;;5004215;28;20040;-72
2023/01/11 02:49:00;;;;;;;1.70;1.23;;;;;;;;;;5008023;28;20349;-72
2023/01/11 02:51:31;;;;;;;1.38;0.90;;;;;;;;;;5006221;28;20091;-72
2023/01/11 02:54:10;;;;;;;2.67;1.23;;;;;;;;;;5006384;28;20451;-72
2023/01/11 02:56:41;;;;;;;1.92;1.13;;;;;;;;;;5006482;28;20038;-73
2023/01/11 02:59:09;;;;;;;1.75;1.20;;;;;;;;;;5006848;28;20034;-73
2023/01/11 03:01:43;;;;;;;1.27;1.13;;;;;;;;;;5005265;28;20052;-74
2023/01/11 03:04:21;;;;;;;4.05;1.35;;;;;;;;;;5004471;28;20493;-72
2023/01/11 03:06:48;;;;;;;2.25;1.20;;;;;;;;;;5003602;28;20030;-73
2023/01/11 03:09:24;;;;;;;2.55;1.23;;;;;;;;;;5006334;28;20030;-73
2023/01/11 03:14:59;;;;;;;1.63;1.10;;;;;;;;;;5004760;28;20738;-72
2023/01/11 03:17:25;;;;;;;1.85;1.08;;;;;;;;;;5007534;28;20021;-73
2023/01/11 03:19:52;;;;;;;3.53;1.00;;;;;;;;;;5007449;28;20750;-73
2023/01/11 03:22:27;;;;;;;2.67;1.10;;;;;;;;;;5007303;28;20160;-73
2023/01/11 03:25:29;;;;;;;1.40;0.93;;;;;;;;;;5001086;28;20049;-72
2023/01/11 03:27:58;;;;;;;1.33;1.08;;;;;;;;;;4942191;28;20550;-72
2023/01/11 03:30:30;;;;;;;2.35;1.00;;;;;;;;;;4993697;28;20041;-72
2023/01/11 03:33:05;;;;;;;2.38;1.00;;;;;;;;;;5001445;28;20033;-72
2023/01/11 03:35:36;;;;;;;2.15;1.00;;;;;;;;;;5000730;28;20113;-71
2023/01/11 03:38:08;;;;;;;1.98;1.02;;;;;;;;;;5006175;28;20031;-71
2023/01/11 03:40:38;;;;;;;1.55;0.88;;;;;;;;;;5008165;28;20429;-72
2023/01/11 03:43:11;;;;;;;2.25;1.02;;;;;;;;;;4992778;28;20029;-72
2023/01/11 03:45:43;;;;;;;2.13;1.25;;;;;;;;;;5006263;28;20026;-73
2023/01/11 03:48:11;;;;;;;1.65;0.90;;;;;;;;;;5005703;28;20022;-73
2023/01/11 03:50:37;;;;;;;2.63;0.90;;;;;;;;;;5008054;28;20030;-72
2023/01/11 03:53:05;;;;;;;2.03;1.10;;;;;;;;;;5007136;28;20033;-72
2023/01/11 03:55:33;;;;;;;1.63;1.00;;;;;;;;;;5005451;28;20038;-73
2023/01/11 03:57:59;;;;;;;1.63;1.00;;;;;;;;;;5003499;28;20057;-73
2023/01/11 04:00:26;;;;;;;1.08;0.93;;;;;;;;;;5006280;28;20092;-74
2023/01/11 04:02:52;;;;;;;0.80;0.80;;;;;;;;;;5004944;28;20026;-73
2023/01/11 04:05:19;;;;;;;1.10;0.90;;;;;;;;;;5003517;28;20441;-73
2023/01/11 04:07:45;;;;;;;1.27;0.88;;;;;;;;;;5001498;28;20025;-73
2023/01/11 04:10:11;;;;;;;1.63;1.00;;;;;;;;;;5003578;28;20029;-73
2023/01/11 04:12:37;;;;;;;0.73;0.73;;;;;;;;;;5009396;28;20030;-72
2023/01/11 04:15:04;;;;;;;1.55;1.00;;;;;;;;;;5004305;28;20374;-72
2023/01/11 04:17:31;;;;;;;2.25;0.93;;;;;;;;;;5003253;28;20105;-72
2023/01/11 04:19:57;;;;;;;1.20;0.90;;;;;;;;;;5004875;28;20034;-73
2023/01/11 04:22:23;;;;;;;0.50;0.50;;;;;;;;;;5005503;28;20049;-73
2023/01/11 04:24:49;;;;;;;2.88;0.85;;;;;;;;;;5002090;28;20042;-74
2023/01/11 04:27:14;;;;;;;0.77;0.77;;;;;;;;;;5002522;28;20414;-74
2023/01/11 04:29:40;;;;;;;2.17;0.80;;;;;;;;;;5007999;28;20072;-73
2023/01/11 04:32:06;;;;;;;1.17;0.85;;;;;;;;;;5008454;28;20025;-71
2023/01/11 04:34:32;;;;;;;1.30;0.80;;;;;;;;;;5008889;28;20022;-72
2023/01/11 04:36:58;;;;;;;1.17;0.93;;;;;;;;;;5008140;28;20032;-72
2023/01/11 04:39:24;;;;;;;1.00;0.90;;;;;;;;;;5007861;28;20056;-72
2023/01/11 04:44:35;;;;;;;3.80;0.85;;;;;;;;;;5000429;28;20053;-73
2023/01/11 04:47:01;;;;;;;1.05;0.90;;;;;;;;;;5007492;28;20041;-73
2023/01/11 04:49:27;;;;;;;0.90;0.75;;;;;;;;;;5009858;28;20042;-71
2023/01/11 04:51:53;;;;;;;1.10;0.70;;;;;;;;;;5007620;28;20034;-72
2023/01/11 04:54:19;;;;;;;1.27;0.75;;;;;;;;;;5009499;28;20444;-74
2023/01/11 04:56:45;;;;;;;1.65;1.10;;;;;;;;;;5008580;28;20602;-72
2023/01/11 04:59:11;;;;;;;1.65;0.90;;;;;;;;;;5010434;28;20033;-71
2023/01/11 05:01:37;;;;;;;2.92;1.02;;;;;;;;;;5007206;28;20528;-72
2023/01/11 05:04:03;;;;;;;2.17;0.82;;;;;;;;;;5004050;28;20037;-71
2023/01/11 05:06:29;;;;;;;1.88;0.80;;;;;;;;;;5002757;28;20116;-73
2023/01/11 05:08:55;;;;;;;1.13;0.80;;;;;;;;;;5002397;28;20022;-72
2023/01/11 05:11:21;;;;;;;1.00;0.90;;;;;;;;;;5008212;28;20037;-72
2023/01/11 05:13:47;;;;;;;1.10;0.90;;;;;;;;;;5004059;28;20080;-72
2023/01/11 05:16:17;;;;;;;1.88;1.00;;;;;;;;;;5008010;28;20025;-71
2023/01/11 05:19:02;;;;;;;1.27;0.90;;;;;;;;;;5004668;28;20643;-72
2023/01/11 05:21:30;;;;;;;1.23;0.70;;;;;;;;;;5006981;28;20273;-72
2023/01/11 05:24:16;;;;;;;1.88;0.90;;;;;;;;;;5010320;28;20113;-71
2023/01/11 05:26:43;;;;;;;0.70;0.70;;;;;;;;;;5006671;28;20478;-72
2023/01/11 05:29:19;;;;;;;0.75;0.60;;;;;;;;;;5009784;28;20034;-71
2023/01/11 05:31:45;;;;;;;0.82;0.80;;;;;;;;;;5005417;28;20025;-72
2023/01/11 05:34:12;;;;;;;2.45;1.00;;;;;;;;;;5002919;28;20108;-72
2023/01/11 05:36:38;;;;;;;2.92;0.73;;;;;;;;;;5005302;28;20029;-76
2023/01/11 05:39:17;;;;;;;2.70;0.85;;;;;;;;;;5001106;28;20026;-76
2023/01/11 05:41:43;;;;;;;1.50;1.00;;;;;;;;;;5002720;28;20034;-76
2023/01/11 05:46:56;;;;;;;1.88;0.90;;;;;;;;;;4999250;28;20512;-77
2023/01/11 05:49:22;;;;;;;3.58;1.58;;;;;;;;;;5007566;28;20034;-77
2023/01/11 05:51:48;;;;;;;3.00;1.30;;;;;;;;;;5000976;28;20430;-76
2023/01/11 05:54:14;;;;;;;2.60;1.30;;;;;;;;;;5008005;28;20030;-76
2023/01/11 05:56:44;;;;;;;5.63;1.67;;;;;;;;;;5005365;28;20045;-76
2023/01/11 05:59:10;;;;;;;5.90;1.55;;;;;;;;;;5007538;28;20031;-77
2023/01/11 06:01:36;;;;;;;2.80;1.42;;;;;;;;;;5008593;28;20116;-77
2023/01/11 06:04:23;;;;;;;2.63;1.38;;;;;;;;;;5009144;28;20165;-77
2023/01/11 06:06:48;;;;;;;2.25;0.95;;;;;;;;;;5005540;28;20121;-76
2023/01/11 06:09:14;;;;;;;2.63;1.40;;;;;;;;;;5007179;28;20171;-78
2023/01/11 06:11:40;;;;;;;4.28;1.35;;;;;;;;;;5007242;28;20465;-76
2023/01/11 06:14:06;;;;;;;3.58;1.30;;;;;;;;;;5005872;28;20033;-77
2023/01/11 06:16:32;;;;;;;8.38;1.38;;;;;;;;;;5006474;28;20030;-77
2023/01/11 06:18:58;;;;;;;6.28;1.98;;;;;;;;;;5004920;28;20661;-77
2023/01/11 06:21:24;;;;;;;5.30;1.55;;;;;;;;;;5007880;28;20092;-78
2023/01/11 06:23:50;;;;;;;4.60;2.15;;;;;;;;;;5006163;28;20022;-78
2023/01/11 06:26:17;;;;;;;4.15;1.55;;;;;;;;;;5004962;28;20071;-77
2023/01/11 06:29:08;;;;;;;1.60;1.02;;;;;;;;;;5004670;28;20030;-77
2023/01/11 06:31:33;;;;;;;3.33;1.45;;;;;;;;;;5005452;28;20120;-77
2023/01/11 06:33:59;;;;;;;3.83;1.42;;;;;;;;;;5006642;28;20034;-77
2023/01/11 06:36:31;;;;;;;3.85;1.73;;;;;;;;;;5007003;28;20412;-77
2023/01/11 06:39:16;;;;;;;3.03;1.10;;;;;;;;;;5006783;28;20045;-77
2023/01/11 06:41:42;;;;;;;3.38;1.33;;;;;;;;;;4996219;28;20489;-77
2023/01/11 06:44:11;;;;;;;3.67;1.70;;;;;;;;;;5006177;28;20026;-77
2023/01/11 06:46:59;;;;;;;4.03;1.30;;;;;;;;;;5007528;28;20041;-77
2023/01/11 06:49:25;;;;;;;7.20;1.80;;;;;;;;;;4997925;28;20064;-78
2023/01/11 06:51:50;;;;;;;4.05;1.27;;;;;;;;;;5011538;28;20048;-77
2023/01/11 06:54:20;;;;;;;3.10;1.42;;;;;;;;;;5006003;28;20027;-77
2023/01/11 06:56:46;;;;;;;2.30;1.23;;;;;;;;;;5004853;28;20049;-77
2023/01/11 06:59:12;;;;;;;6.15;1.83;;;;;;;;;;5005602;28;20392;-77
2023/01/11 07:01:38;;;;;;;3.72;1.40;;;;;;;;;;5005508;28;20029;-78
2023/01/11 07:04:04;;;;;;;1.55;1.20;;;;;;;;;;5006235;28;20644;-78
2023/01/11 07:06:33;;;;;;;2.28;1.10;;;;;;;;;;5006816;28;20032;-78
2023/01/11 07:08:59;;;;;;;3.30;1.50;;;;;;;;;;5005666;28;20040;-78
2023/01/11 07:11:25;;;;;;;5.68;1.10;;;;;;;;;;5005674;28;20133;-77
2023/01/11 07:13:51;;;;;;;2.85;1.10;;;;;;;;;;4998472;28;20084;-77
2023/01/11 07:16:17;;;;;;;3.25;1.33;;;;;;;;;;5005595;28;20049;-78
2023/01/11 07:18:43;;;;;;;3.72;1.27;;;;;;;;;;5007610;28;20065;-77
2023/01/11 07:21:09;;;;;;;7.20;1.80;;;;;;;;;;5004962;28;20026;-77
2023/01/11 07:23:35;;;;;;;3.35;1.30;;;;;;;;;;5003979;28;20479;-74
2023/01/11 07:26:01;;;;;;;2.45;1.33;;;;;;;;;;5004035;28;20453;-73
2023/01/11 07:28:29;;;;;;;2.33;1.60;;;;;;;;;;5005854;28;20168;-74
2023/01/11 07:30:55;;;;;;;3.28;1.30;;;;;;;;;;5007416;28;20439;-74
2023/01/11 07:33:21;;;;;;;4.85;1.20;;;;;;;;;;5003957;28;20038;-74
2023/01/11 07:35:48;;;;;;;2.40;1.17;;;;;;;;;;5004322;28;20045;-81
2023/01/11 07:38:14;;;;;;;2.58;1.20;;;;;;;;;;5007497;28;20111;-79
2023/01/11 07:40:40;;;;;;;1.75;0.90;;;;;;;;;;5007419;28;20018;-77
2023/01/11 07:43:17;;;;;;;2.70;1.25;;;;;;;;;;5008074;28;20033;-77
2023/01/11 07:45:44;;;;;;;3.28;0.95;;;;;;;;;;5006081;28;20258;-76
2023/01/11 07:48:10;;;;;;;2.33;1.15;;;;;;;;;;5005973;28;20019;-76
2023/01/11 07:50:37;;;;;;;1.55;0.88;;;;;;;;;;5003614;28;20099;-76
2023/01/11 07:53:03;;;;;;;1.85;1.17;;;;;;;;;;5008591;28;20037;-76
2023/01/11 07:55:29;;;;;;;1.17;0.93;;;;;;;;;;5004864;28;20162;-75
2023/01/11 07:57:56;;;;;;;2.67;0.98;;;;;;;;;;5002975;28;20026;-76
2023/01/11 08:00:22;;;;;;;4.22;1.20;;;;;;;;;;5005229;28;20030;-76
2023/01/11 08:02:51;;;;;;;4.30;1.13;;;;;;;;;;5009056;28;20125;-76
2023/01/11 08:05:17;;;;;;;1.65;0.90;;;;;;;;;;5011251;28;20638;-74
2023/01/11 08:07:43;;;;;;;0.80;0.80;;;;;;;;;;5008963;28;20017;-82
2023/01/11 08:10:09;;;;;;;1.58;0.80;;;;;;;;;;5010948;28;20045;-76
2023/01/11 08:15:25;;;;;;;1.20;0.70;;;;;;;;;;5004589;28;20103;-78
2023/01/11 08:17:53;;;;;;;1.35;0.82;;;;;;;;;;5009026;28;20493;-78
2023/01/11 08:20:19;;;;;;;1.20;0.60;;;;;;;;;;5013242;28;20477;-78
2023/01/11 08:22:47;;;;;;;1.60;0.77;;;;;;;;;;5013468;28;20029;-80
2023/01/11 08:25:13;;;;;;;1.30;0.98;;;;;;;;;;5011175;28;20062;-76
2023/01/11 08:27:54;;;;;;;1.75;0.90;;;;;;;;;;5013260;28;20033;-79
2023/01/11 08:30:20;;;;;;;1.33;0.88;;;;;;;;;;5013238;28;20029;-75
2023/01/11 08:32:46;;;;;;;0.75;0.57;;;;;;;;;;5012361;28;20088;-74
2023/01/11 08:35:12;;;;;;;3.67;0.95;;;;;;;;;;5013004;28;20472;-76
2023/01/11 08:37:38;;;;;;;2.00;0.90;;;;;;;;;;5013763;28;20083;-76
2023/01/11 08:40:05;;;;;;;0.90;0.70;;;;;;;;;;5013881;28;20136;-78
2023/01/11 08:42:31;;;;;;;1.17;0.88;;;;;;;;;;5012109;28;20465;-76
2023/01/11 08:44:57;;;;;;;1.75;0.70;;;;;;;;;;5010324;28;20014;-78
2023/01/11 08:47:23;;;;;;;3.00;0.90;;;;;;;;;;5014232;28;20563;-74
2023/01/11 08:49:49;;;;;;;0.68;0.68;;;;;;;;;;5012432;28;20026;-78
2023/01/11 08:52:15;;;;;;;0.93;0.77;;;;;;;;;;5011544;28;20021;-80
2023/01/11 08:54:41;;;;;;;1.55;0.70;;;;;;;;;;5012058;28;20708;-78
2023/01/11 08:57:07;;;;;;;5.05;0.88;;;;;;;;;;5013585;28;20053;-74
2023/01/11 08:59:33;;;;;;;2.30;1.00;;;;;;;;;;5012707;28;20036;-74
2023/01/11 09:02:01;;;;;;;2.05;0.90;;;;;;;;;;5011099;28;20132;-74
2023/01/11 09:04:27;;;;;;;1.00;0.60;;;;;;;;;;5012490;28;20113;-74
2023/01/11 09:06:53;;;;;;;1.17;0.73;;;;;;;;;;5013242;28;20025;-74
2023/01/11 09:09:19;;;;;;;2.10;0.70;;;;;;;;;;5013064;28;20022;-74
2023/01/11 09:12:01;;;;;;;0.77;0.70;;;;;;;;;;5010185;28;20021;-75
2023/01/11 09:14:28;;;;;;;2.25;0.93;;;;;;;;;;5006459;28;20622;-74
2023/01/11 09:16:55;;;;;;;1.65;0.68;;;;;;;;;;5009873;28;20053;-74
2023/01/11 09:19:21;;;;;;;3.05;0.80;;;;;;;;;;5010926;28;20741;-74
2023/01/11 09:21:50;;;;;;;1.05;0.70;;;;;;;;;;5008086;28;20370;-74
2023/01/11 09:24:16;;;;;;;5.82;0.98;;;;;;;;;;5005027;28;20028;-74
2023/01/11 09:26:42;;;;;;;1.98;0.70;;;;;;;;;;5008379;28;20050;-74
2023/01/11 09:29:09;;;;;;;1.63;0.80;;;;;;;;;;5009372;28;20484;-75
2023/01/11 09:31:35;;;;;;;0.65;0.63;;;;;;;;;;5009975;28;20038;-73
2023/01/11 09:34:02;;;;;;;1.20;0.90;;;;;;;;;;5009504;28;20034;-75
2023/01/11 09:36:30;;;;;;;0.88;0.55;;;;;;;;;;5008615;28;20211;-75
2023/01/11 09:38:59;;;;;;;1.52;0.68;;;;;;;;;;5008390;28;20025;-75
2023/01/11 09:41:39;;;;;;;1.17;0.60;;;;;;;;;;5009593;28;20045;-74
2023/01/11 09:44:21;;;;;;;0.75;0.70;;;;;;;;;;5010319;28;20022;-74
2023/01/11 09:46:50;;;;;;;0.50;0.50;;;;;;;;;;5006902;28;20083;-74
2023/01/11 09:49:26;;;;;;;0.77;0.55;;;;;;;;;;5008081;28;20030;-74
2023/01/11 09:52:03;;;;;;;2.13;0.70;;;;;;;;;;5008645;28;20026;-77
2023/01/11 09:54:30;;;;;;;1.27;0.85;;;;;;;;;;5010713;28;20022;-75
2023/01/11 09:57:18;;;;;;;1.45;0.70;;;;;;;;;;5007624;28;20599;-75
2023/01/11 09:59:50;;;;;;;1.38;0.70;;;;;;;;;;5008343;28;20030;-79
2023/01/11 10:02:25;;;;;;;1.33;0.90;;;;;;;;;;5005529;28;20040;-77
2023/01/11 10:05:14;;;;;;;1.83;0.60;;;;;;;;;;4996652;28;20121;-77
2023/01/11 10:07:48;;;;;;;1.85;0.70;;;;;;;;;;5004578;28;20029;-76
2023/01/11 10:10:42;;;;;;;0.85;0.57;;;;;;;;;;5005296;28;20495;-75
2023/01/11 10:13:26;;;;;;;0.93;0.70;;;;;;;;;;5006357;28;20025;-76
2023/01/11 10:16:11;;;;;;;1.17;0.60;;;;;;;;;;5001184;28;20117;-75
2023/01/11 10:18:45;;;;;;;2.00;0.55;;;;;;;;;;5004081;28;20036;-77
2023/01/11 10:21:27;;;;;;;0.70;0.70;;;;;;;;;;5006630;28;20248;-74
2023/01/11 10:23:58;;;;;;;2.90;0.82;;;;;;;;;;4999263;28;20026;-74
2023/01/11 10:26:27;;;;;;;0.93;0.70;;;;;;;;;;4994914;28;20050;-74
2023/01/11 10:42:29;;;;;;;1.35;0.73;;;;;;;;;;5006600;28;20450;-73
2023/01/11 10:45:14;;;;;;;0.77;0.65;;;;;;;;;;5007898;28;20014;-74
2023/01/11 10:47:45;;;;;;;0.85;0.65;;;;;;;;;;4999957;28;20056;-73
2023/01/11 10:50:14;;;;;;;1.02;0.75;;;;;;;;;;5001111;28;20045;-73
2023/01/11 10:52:45;;;;;;;1.45;0.75;;;;;;;;;;5002074;28;20029;-73
2023/01/11 10:55:13;;;;;;;1.55;0.82;;;;;;;;;;5008660;28;20109;-74
2023/01/11 10:57:46;;;;;;;1.33;0.70;;;;;;;;;;5006182;28;20038;-73
2023/01/11 11:00:19;;;;;;;1.45;0.65;;;;;;;;;;5006646;28;20029;-73
2023/01/11 11:03:19;;;;;;;0.85;0.60;;;;;;;;;;5005957;28;20026;-73
2023/01/11 11:05:51;;;;;;;1.45;0.68;;;;;;;;;;5007573;28;20022;-73
2023/01/11 11:08:21;;;;;;;0.40;0.40;;;;;;;;;;5006588;28;20095;-73
2023/01/11 11:11:09;;;;;;;0.98;0.63;;;;;;;;;;5008000;28;20037;-73
2023/01/11 11:13:41;;;;;;;1.33;1.02;;;;;;;;;;5008861;28;20477;-74
2023/01/11 11:16:23;;;;;;;2.60;0.70;;;;;;;;;;5007118;28;20396;-73
2023/01/11 11:18:50;;;;;;;2.78;0.60;;;;;;;;;;5006227;28;20473;-73
2023/01/11 11:21:24;;;;;;;1.35;0.70;;;;;;;;;;5006509;28;20037;-74
2023/01/11 11:23:54;;;;;;;1.83;0.70;;;;;;;;;;5008271;28;20075;-73
2023/01/11 11:26:21;;;;;;;2.47;0.60;;;;;;;;;;5007515;28;20053;-73
2023/01/11 11:29:01;;;;;;;0.65;0.50;;;;;;;;;;5008944;28;20026;-74
2023/01/11 11:31:28;;;;;;;0.88;0.60;;;;;;;;;;5006274;28;20029;-74
2023/01/11 11:33:53;;;;;;;0.68;0.50;;;;;;;;;;5008825;28;20065;-73
2023/01/11 11:36:19;;;;;;;0.60;0.60;;;;;;;;;;5006357;28;20101;-74
2023/01/11 11:39:08;;;;;;;1.25;0.80;;;;;;;;;;5008099;28;20053;-73
2023/01/11 11:41:55;;;;;;;1.50;0.77;;;;;;;;;;5007141;28;20034;-73
2023/01/11 11:44:23;;;;;;;1.33;1.10;;;;;;;;;;5008376;28;20061;-74
2023/01/11 11:47:08;;;;;;;1.17;0.60;;;;;;;;;;5006559;28;20018;-73
2023/01/11 11:49:35;;;;;;;0.40;0.40;;;;;;;;;;5006059;28;20033;-73
2023/01/11 11:52:02;;;;;;;0.98;0.63;;;;;;;;;;5007039;28;20049;-74
2023/01/11 11:54:30;;;;;;;1.95;0.70;;;;;;;;;;5008409;28;20037;-73
2023/01/11 11:56:57;;;;;;;1.42;0.80;;;;;;;;;;5007638;28;20033;-73
2023/01/11 11:59:25;;;;;;;1.17;0.60;;;;;;;;;;5007821;28;20453;-74
2023/01/11 12:02:01;;;;;;;0.70;0.70;;;;;;;;;;5005007;28;20029;-73
2023/01/11 12:04:32;;;;;;;1.25;0.68;;;;;;;;;;5007873;28;20109;-74
2023/01/11 12:06:58;;;;;;;;;;;;;;;;;;4995302;28;20436;-73
2023/01/11 12:09:27;;;;;;;1.02;0.70;;;;;;;;;;5008065;28;19952;-73
2023/01/11 12:11:53;;;;;;;0.68;0.43;;;;;;;;;;5003374;28;20030;-73
2023/01/11 12:14:25;;;;;;;0.52;0.52;;;;;;;;;;5004192;28;20481;-73
2023/01/11 12:16:51;;;;;;;0.70;0.40;;;;;;;;;;5004619;28;20060;-73
2023/01/11 12:19:36;;;;;;;0.47;0.43;;;;;;;;;;5007642;28;20120;-74
2023/01/11 12:22:16;;;;;;;0.75;0.50;;;;;;;;;;5008033;28;20440;-74
2023/01/11 12:24:42;;;;;;;0.82;0.60;;;;;;;;;;5002866;28;20018;-73
2023/01/11 12:27:17;;;;;;;0.90;0.60;;;;;;;;;;5003494;28;20038;-74
2023/01/11 12:29:51;;;;;;;0.85;0.60;;;;;;;;;;5007811;28;20109;-73
2023/01/11 12:32:29;;;;;;;2.13;0.52;;;;;;;;;;5007811;28;20033;-74
2023/01/11 12:35:01;;;;;;;0.57;0.50;;;;;;;;;;5007538;28;20030;-73
2023/01/11 12:37:33;;;;;;;2.05;0.70;;;;;;;;;;5001478;28;20040;-73
2023/01/11 12:40:08;;;;;;;0.63;0.50;;;;;;;;;;5005990;28;20389;-74
2023/01/11 12:42:40;;;;;;;0.70;0.60;;;;;;;;;;5007860;28;20041;-74
2023/01/11 12:45:20;;;;;;;0.65;0.60;;;;;;;;;;5007713;28;20044;-73
2023/01/11 12:47:53;;;;;;;0.43;0.43;;;;;;;;;;5006947;28;20022;-74
2023/01/11 12:50:21;;;;;;;0.60;0.60;;;;;;;;;;5008550;28;20034;-74
2023/01/11 12:53:00;;;;;;;0.75;0.68;;;;;;;;;;5011015;28;20041;-73
2023/01/11 12:55:50;;;;;;;0.55;0.55;;;;;;;;;;5010474;28;20477;-74
2023/01/11 12:58:21;;;;;;;0.77;0.63;;;;;;;;;;5008862;28;20442;-73
2023/01/11 13:00:47;;;;;;;;;;;;;;;;;;5008829;28;20072;-74
2023/01/11 13:03:33;;;;;;;1.10;0.40;;;;;;;;;;5009958;28;20315;-73
2023/01/11 13:06:05;;;;;;;3.50;0.52;;;;;;;;;;5004005;28;20022;-73
2023/01/11 13:08:43;;;;;;;2.65;0.68;;;;;;;;;;5010463;28;20037;-74
2023/01/11 13:11:33;;;;;;;0.52;0.40;;;;;;;;;;5006485;28;20029;-74
2023/01/11 13:14:18;;;;;;;0.60;0.50;;;;;;;;;;5010151;28;20026;-74
2023/01/11 13:17:03;;;;;;;3.60;0.60;;;;;;;;;;5010738;28;20030;-74
2023/01/11 13:19:38;;;;;;;0.60;0.38;;;;;;;;;;5008826;28;20539;-74
2023/01/11 13:22:10;;;;;;;0.68;0.55;;;;;;;;;;5010774;28;20108;-74
2023/01/11 13:24:36;;;;;;;0.40;0.40;;;;;;;;;;5009540;28;20014;-73
2023/01/11 13:27:07;;;;;;;1.38;0.60;;;;;;;;;;5010678;28;20033;-74
2023/01/11 13:29:34;;;;;;;0.90;0.70;;;;;;;;;;5008724;28;20424;-73
2023/01/11 13:32:03;;;;;;;1.88;0.80;;;;;;;;;;5010167;28;20036;-73
2023/01/11 13:34:35;;;;;;;0.82;0.47;;;;;;;;;;5009425;28;20029;-73
2023/01/11 13:37:05;;;;;;;0.55;0.47;;;;;;;;;;5009151;28;20026;-74
2023/01/11 13:39:37;;;;;;;0.70;0.50;;;;;;;;;;4992872;28;20442;-73
2023/01/11 13:42:04;;;;;;;2.20;0.60;;;;;;;;;;5010625;28;20030;-74
2023/01/11 13:44:33;;;;;;;1.65;0.68;;;;;;;;;;5008585;28;20026;-73
2023/01/11 13:47:07;;;;;;;0.45;0.40;;;;;;;;;;5007232;28;20432;-73
2023/01/11 13:49:48;;;;;;;0.47;0.47;;;;;;;;;;5008929;28;20568;-74
2023/01/11 13:52:34;;;;;;;0.50;0.50;;;;;;;;;;5009135;28;20036;-74
2023/01/11 13:55:02;;;;;;;0.63;0.45;;;;;;;;;;4994797;28;20042;-74
2023/01/11 13:57:40;;;;;;;1.05;0.57;;;;;;;;;;5008462;28;20030;-73
2023/01/11 14:00:14;;;;;;;0.55;0.38;;;;;;;;;;5008828;28;20041;-74
2023/01/11 14:02:46;;;;;;;0.50;0.50;;;;;;;;;;5009031;28;20061;-74
2023/01/11 14:05:20;;;;;;;0.73;0.50;;;;;;;;;;5009110;28;20050;-73
2023/01/11 14:08:02;;;;;;;0.75;0.50;;;;;;;;;;5009237;28;20026;-74
2023/01/11 14:10:34;;;;;;;0.52;0.52;;;;;;;;;;5009198;28;20022;-74
2023/01/11 14:16:20;;;;;;;0.70;0.70;;;;;;;;;;5007893;28;21043;-74
2023/01/11 14:18:49;;;;;;;0.40;0.40;;;;;;;;;;5008819;28;20040;-74
2023/01/11 14:21:29;;;;;;;1.40;0.70;;;;;;;;;;5009177;28;20477;-74
2023/01/11 14:23:55;;;;;;;0.40;0.40;;;;;;;;;;5010049;28;20037;-75
2023/01/11 14:26:48;;;;;;;0.80;0.60;;;;;;;;;;5007638;28;20519;-73
2023/01/11 14:29:30;;;;;;;0.55;0.55;;;;;;;;;;4976770;28;20076;-75
2023/01/11 14:32:08;;;;;;;0.85;0.50;;;;;;;;;;5009451;28;20243;-73
2023/01/11 14:34:53;;;;;;;0.55;0.55;;;;;;;;;;5006900;28;20029;-73
2023/01/11 14:37:45;;;;;;;0.40;0.30;;;;;;;;;;5006807;28;20022;-73
2023/01/11 14:40:17;;;;;;;0.30;0.30;;;;;;;;;;5007476;28;20469;-75
2023/01/11 14:42:50;;;;;;;1.33;0.40;;;;;;;;;;5008849;28;20481;-74
2023/01/11 14:45:34;;;;;;;0.40;0.40;;;;;;;;;;5006322;28;20623;-73
2023/01/11 14:48:07;;;;;;;0.55;0.55;;;;;;;;;;5009621;28;20022;-73
2023/01/11 14:50:39;;;;;;;0.77;0.43;;;;;;;;;;5008314;28;20145;-74
2023/01/11 14:53:07;;;;;;;0.88;0.50;;;;;;;;;;5006901;28;20112;-74
2023/01/11 14:55:39;;;;;;;0.70;0.30;;;;;;;;;;5006549;28;20396;-73
2023/01/11 14:58:17;;;;;;;0.45;0.40;;;;;;;;;;5007454;28;20030;-74
2023/01/11 15:00:42;;;;;;;0.40;0.32;;;;;;;;;;5009227;28;20044;-73
2023/01/11 15:03:08;;;;;;;1.17;0.45;;;;;;;;;;5009160;28;20014;-73
2023/01/11 15:05:43;;;;;;;0.30;0.30;;;;;;;;;;5007187;28;20037;-73
2023/01/11 15:08:29;;;;;;;1.45;0.50;;;;;;;;;;5007408;28;20037;-73
2023/01/11 15:10:57;;;;;;;0.63;0.40;;;;;;;;;;5000277;28;20049;-73
2023/01/11 15:13:25;;;;;;;0.30;0.30;;;;;;;;;;5008596;28;20041;-74
2023/01/11 15:18:45;;;;;;;0.80;0.50;;;;;;;;;;4969804;28;20069;-73
2023/01/11 15:21:15;;;;;;;0.60;0.50;;;;;;;;;;5008567;28;20113;-73
2023/01/11 15:23:47;;;;;;;0.40;0.40;;;;;;;;;;5008381;28;20053;-74
2023/01/11 15:26:16;;;;;;;0.40;0.40;;;;;;;;;;5005820;28;20523;-73
2023/01/11 15:28:44;;;;;;;0.38;0.38;;;;;;;;;;5008357;28;20034;-73
2023/01/11 15:31:33;;;;;;;0.63;0.47;;;;;;;;;;5005368;28;20025;-73
2023/01/11 15:34:23;;;;;;;1.10;0.40;;;;;;;;;;4995445;28;20124;-75
2023/01/11 15:36:53;;;;;;;1.00;0.45;;;;;;;;;;4998501;28;20519;-73
2023/01/11 15:39:32;;;;;;;0.38;0.38;;;;;;;;;;5008508;28;20034;-73
2023/01/11 15:42:08;;;;;;;0.80;0.60;;;;;;;;;;5008008;28;20476;-73
2023/01/11 15:44:36;;;;;;;0.32;0.30;;;;;;;;;;5006467;28;20524;-74
2023/01/11 15:47:05;;;;;;;0.40;0.40;;;;;;;;;;5006832;28;20430;-73